createdAt,value
2023-01-26T00:02:22.220Z,19.55
2023-01-26T00:04:50.470Z,17.48
2023-01-26T00:07:18.675Z,17.27
2023-01-26T00:09:46.841Z,18.33
2023-01-26T00:12:15.128Z,18.50
2023-01-26T00:14:53.324Z,15.40
2023-01-26T00:17:28.156Z,18.00
2023-01-26T00:19:58.254Z,17.98
2023-01-26T00:22:28.065Z,17.67
2023-01-26T00:24:56.297Z,17.58
2023-01-26T00:27:24.634Z,16.85
2023-01-26T00:29:54.861Z,18.02
2023-01-26T00:32:23.105Z,16.55
2023-01-26T00:34:51.374Z,17.52
2023-01-26T00:37:20.033Z,18.13
2023-01-26T00:39:48.265Z,17.00
2023-01-26T00:42:16.649Z,17.27
2023-01-26T00:44:45.029Z,22.10
2023-01-26T00:47:16.215Z,17.83
2023-01-26T00:49:47.279Z,16.98
2023-01-26T00:52:15.658Z,17.73
2023-01-26T00:54:44.001Z,18.30
2023-01-26T00:57:12.371Z,17.15
2023-01-26T00:59:40.918Z,16.50
2023-01-26T01:02:09.297Z,16.40
2023-01-26T01:04:39.006Z,16.73
2023-01-26T01:07:07.305Z,18.08
2023-01-26T01:09:35.683Z,20.00
2023-01-26T01:12:03.962Z,20.08
2023-01-26T01:14:32.469Z,17.63
2023-01-26T01:17:00.872Z,21.00
2023-01-26T01:19:29.226Z,18.13
2023-01-26T01:21:58.850Z,16.73
2023-01-26T01:24:27.163Z,18.70
2023-01-26T01:26:55.514Z,18.05
2023-01-26T01:29:23.771Z,20.63
2023-01-26T01:31:52.169Z,19.98
2023-01-26T01:34:20.427Z,19.83
2023-01-26T01:36:48.723Z,17.13
2023-01-26T01:39:18.415Z,20.00
2023-01-26T01:41:46.825Z,20.20
2023-01-26T01:44:21.006Z,19.35
2023-01-26T01:46:54.921Z,20.30
2023-01-26T01:49:27.691Z,18.05
2023-01-26T01:52:01.420Z,18.23
2023-01-26T01:54:36.477Z,19.95
2023-01-26T01:57:17.729Z,19.35
2023-01-26T01:59:51.118Z,18.00
2023-01-26T02:02:19.830Z,16.48
2023-01-26T02:04:49.255Z,18.48
2023-01-26T02:07:17.825Z,20.65
2023-01-26T02:10:05.379Z,21.02
2023-01-26T02:12:35.061Z,20.30
2023-01-26T02:15:04.551Z,19.50
2023-01-26T02:17:33.227Z,18.95
2023-01-26T02:20:06.221Z,18.35
2023-01-26T02:22:43.291Z,17.35
2023-01-26T02:25:23.907Z,20.60
2023-01-26T02:27:53.710Z,19.00
2023-01-26T02:30:23.840Z,17.35
2023-01-26T02:32:52.287Z,18.10
2023-01-26T02:35:21.055Z,17.45
2023-01-26T02:37:49.573Z,20.25
2023-01-26T02:40:26.094Z,17.67
2023-01-26T02:42:55.191Z,16.77
2023-01-26T02:45:24.949Z,17.83
2023-01-26T02:47:53.637Z,18.38
2023-01-26T02:50:20.911Z,15.00
2023-01-26T02:52:49.221Z,19.48
2023-01-26T02:55:22.445Z,18.00
2023-01-26T02:57:51.717Z,18.23
2023-01-26T03:00:23.099Z,17.30
2023-01-26T03:02:54.771Z,16.63
2023-01-26T03:05:25.435Z,17.60
2023-01-26T03:07:54.458Z,17.20
2023-01-26T03:10:27.142Z,18.30
2023-01-26T03:12:55.574Z,16.08
2023-01-26T03:15:43.829Z,17.48
2023-01-26T03:18:32.983Z,18.05
2023-01-26T03:21:19.569Z,18.52
2023-01-26T03:24:05.682Z,18.58
2023-01-26T03:26:52.291Z,18.35
2023-01-26T03:29:21.612Z,16.63
2023-01-26T03:31:51.283Z,18.05
2023-01-26T03:34:20.535Z,21.00
2023-01-26T03:36:49.825Z,21.67
2023-01-26T03:39:37.992Z,17.08
2023-01-26T03:42:24.538Z,18.10
2023-01-26T03:45:10.717Z,16.88
2023-01-26T03:48:01.065Z,20.33
2023-01-26T03:50:48.336Z,19.98
2023-01-26T03:53:36.295Z,18.77
2023-01-26T03:56:18.382Z,20.85
2023-01-26T03:58:49.653Z,17.08
2023-01-26T04:01:20.111Z,19.05
2023-01-26T04:04:11.321Z,19.17
2023-01-26T04:07:01.545Z,17.80
2023-01-26T04:09:30.043Z,19.20
2023-01-26T04:11:59.510Z,19.48
2023-01-26T04:14:50.055Z,21.75
2023-01-26T04:17:39.143Z,17.35
2023-01-26T04:20:29.478Z,19.20
2023-01-26T04:22:57.985Z,18.08
2023-01-26T04:25:26.382Z,18.73
2023-01-26T04:27:57.673Z,17.48
2023-01-26T04:30:26.024Z,18.92
2023-01-26T04:32:54.429Z,18.98
2023-01-26T04:35:24.097Z,18.80
2023-01-26T04:37:52.396Z,21.42
2023-01-26T04:40:20.867Z,21.13
2023-01-26T04:42:50.567Z,20.67
2023-01-26T04:45:19.314Z,19.90
2023-01-26T04:47:48.701Z,20.63
2023-01-26T04:50:18.551Z,18.27
2023-01-26T04:52:49.754Z,16.67
2023-01-26T04:55:18.507Z,17.10
2023-01-26T04:57:47.533Z,16.70
2023-01-26T05:00:16.203Z,17.13
2023-01-26T05:02:45.424Z,16.35
2023-01-26T05:05:13.978Z,14.77
2023-01-26T05:07:42.773Z,13.13
2023-01-26T05:10:15.754Z,14.80
2023-01-26T05:13:04.461Z,13.05
2023-01-26T05:15:44.656Z,12.93
2023-01-26T05:18:17.229Z,13.75
2023-01-26T05:20:57.832Z,13.82
2023-01-26T05:23:28.408Z,14.80
2023-01-26T05:26:24.308Z,13.18
2023-01-26T05:29:02.422Z,13.15
2023-01-26T05:31:30.805Z,10.95
2023-01-26T05:33:59.847Z,12.73
2023-01-26T05:36:28.201Z,14.20
2023-01-26T05:38:56.781Z,13.63
2023-01-26T05:41:31.868Z,12.98
2023-01-26T05:44:22.993Z,10.98
2023-01-26T05:47:06.559Z,13.45
2023-01-26T05:49:35.363Z,13.15
2023-01-26T05:52:03.626Z,13.60
2023-01-26T05:54:32.189Z,12.65
2023-01-26T05:57:02.955Z,15.35
2023-01-26T05:59:32.667Z,12.73
2023-01-26T06:02:01.974Z,14.48
2023-01-26T06:04:30.883Z,12.18
2023-01-26T06:07:01.538Z,12.25
2023-01-26T06:09:45.193Z,14.43
2023-01-26T06:12:31.583Z,15.15
2023-01-26T06:15:04.376Z,13.98
2023-01-26T06:17:38.377Z,11.45
2023-01-26T06:20:11.445Z,13.43
2023-01-26T06:22:40.343Z,14.57
2023-01-26T06:25:10.002Z,15.30
2023-01-26T06:27:42.615Z,13.88
2023-01-26T06:30:25.472Z,12.30
2023-01-26T06:32:55.954Z,16.05
2023-01-26T06:35:25.200Z,14.93
2023-01-26T06:37:56.195Z,14.05
2023-01-26T06:40:24.626Z,13.88
2023-01-26T06:42:55.355Z,14.13
2023-01-26T06:45:23.757Z,13.73
2023-01-26T06:47:55.977Z,12.07
2023-01-26T06:50:28.141Z,12.70
2023-01-26T06:52:57.728Z,10.48
2023-01-26T06:55:49.402Z,10.85
2023-01-26T06:58:45.762Z,8.80
2023-01-26T07:01:37.619Z,9.80
2023-01-26T07:04:05.982Z,9.95
2023-01-26T07:06:34.446Z,8.65
2023-01-26T07:09:02.671Z,8.85
2023-01-26T07:11:32.472Z,9.15
2023-01-26T07:14:02.127Z,9.32
2023-01-26T07:16:33.357Z,8.43
2023-01-26T07:21:30.454Z,7.57
2023-01-26T07:23:58.679Z,8.85
2023-01-26T07:26:27.147Z,8.13
2023-01-26T07:28:55.498Z,6.85
2023-01-26T07:31:25.216Z,9.18
2023-01-26T07:33:53.590Z,7.75
2023-01-26T07:36:21.898Z,9.05
2023-01-26T07:38:50.143Z,7.47
2023-01-26T07:41:18.477Z,9.40
2023-01-26T07:43:46.679Z,7.40
2023-01-26T07:46:14.994Z,7.65
2023-01-26T07:48:44.937Z,7.70
2023-01-26T07:51:13.234Z,6.45
2023-01-26T07:53:43.553Z,7.05
2023-01-26T07:56:13.564Z,7.93
2023-01-26T07:58:41.932Z,7.80
2023-01-26T08:01:12.071Z,8.88
2023-01-26T08:03:41.044Z,9.40
2023-01-26T08:06:13.757Z,6.97
2023-01-26T08:08:43.260Z,8.10
2023-01-26T08:11:12.641Z,8.52
2023-01-26T08:13:41.059Z,8.10
2023-01-26T08:16:12.566Z,8.45
2023-01-26T08:18:41.830Z,16.58
2023-01-26T08:21:12.257Z,11.35
2023-01-26T08:26:12.241Z,8.25
2023-01-26T08:28:40.891Z,8.87
2023-01-26T08:31:12.162Z,8.40
2023-01-26T08:33:41.570Z,8.07
2023-01-26T08:36:14.047Z,7.85
2023-01-26T08:38:42.838Z,9.18
2023-01-26T08:41:11.886Z,8.57
2023-01-26T08:43:40.364Z,8.85
2023-01-26T08:46:08.881Z,10.32
2023-01-26T08:48:37.531Z,7.30
2023-01-26T08:51:07.477Z,10.48
2023-01-26T08:53:38.404Z,11.85
2023-01-26T08:56:09.079Z,11.65
2023-01-26T08:58:37.736Z,10.83
2023-01-26T09:01:07.102Z,8.50
2023-01-26T09:03:36.274Z,10.60
2023-01-26T09:06:05.423Z,8.38
2023-01-26T09:08:34.008Z,9.73
2023-01-26T09:11:04.014Z,9.13
2023-01-26T09:13:32.335Z,10.63
2023-01-26T09:16:03.971Z,9.15
2023-01-26T09:18:32.638Z,10.73
2023-01-26T09:21:04.887Z,11.15
2023-01-26T09:23:33.663Z,11.48
2023-01-26T09:26:03.718Z,10.93
2023-01-26T09:28:32.062Z,9.80
2023-01-26T09:31:05.080Z,8.93
2023-01-26T09:33:33.945Z,10.10
2023-01-26T09:36:05.833Z,9.13
2023-01-26T09:38:34.125Z,11.25
2023-01-26T09:41:08.594Z,12.02
2023-01-26T09:43:41.711Z,12.10
2023-01-26T09:46:23.359Z,12.77
2023-01-26T09:51:33.235Z,10.90
2023-01-26T09:54:05.588Z,12.43
2023-01-26T09:56:35.394Z,11.68
2023-01-26T09:59:21.114Z,11.45
2023-01-26T10:01:57.365Z,15.10
2023-01-26T10:04:33.902Z,13.93
2023-01-26T10:07:05.515Z,17.15
2023-01-26T10:09:49.777Z,14.48
2023-01-26T10:12:24.009Z,16.48
2023-01-26T10:14:57.667Z,14.88
2023-01-26T10:17:31.406Z,19.33
2023-01-26T10:20:05.061Z,19.17
2023-01-26T10:22:41.505Z,18.35
2023-01-26T10:25:16.732Z,17.58
2023-01-26T10:27:47.333Z,18.23
2023-01-26T10:30:17.129Z,18.83
2023-01-26T10:32:48.068Z,20.13
2023-01-26T10:35:19.901Z,14.18
2023-01-26T10:37:52.972Z,18.10
2023-01-26T10:40:22.474Z,17.55
2023-01-26T10:42:59.923Z,17.48
2023-01-26T10:45:31.048Z,16.08
2023-01-26T10:48:14.476Z,20.70
2023-01-26T10:50:42.983Z,20.17
2023-01-26T10:53:17.527Z,21.17
2023-01-26T10:56:00.099Z,20.02
2023-01-26T10:58:44.871Z,18.27
2023-01-26T11:01:15.631Z,19.27
2023-01-26T11:03:44.586Z,18.20
2023-01-26T11:06:16.780Z,17.25
2023-01-26T11:08:48.335Z,16.55
2023-01-26T11:11:27.626Z,19.05
2023-01-26T11:14:20.130Z,19.20
2023-01-26T11:17:01.669Z,19.00
2023-01-26T11:19:47.676Z,18.05
2023-01-26T11:22:20.714Z,18.08
2023-01-26T11:24:57.187Z,17.40
2023-01-26T11:27:38.250Z,18.15
2023-01-26T11:30:39.024Z,16.30
2023-01-26T11:33:18.148Z,17.95
2023-01-26T11:35:55.242Z,18.90
2023-01-26T11:38:38.956Z,19.73
2023-01-26T11:41:25.362Z,15.70
2023-01-26T11:44:06.054Z,18.88
2023-01-26T11:46:57.844Z,17.87
2023-01-26T11:52:09.036Z,16.98
2023-01-26T11:54:59.138Z,16.42
2023-01-26T11:57:34.927Z,17.67
2023-01-26T12:00:09.425Z,16.30
2023-01-26T12:02:50.383Z,15.52
2023-01-26T12:05:22.678Z,27.00
2023-01-26T12:07:56.274Z,18.25
2023-01-26T12:10:28.838Z,16.60
2023-01-26T12:13:02.129Z,18.38
2023-01-26T12:15:35.647Z,19.50
2023-01-26T12:18:15.470Z,15.70
2023-01-26T12:20:46.680Z,17.70
2023-01-26T12:23:27.500Z,18.20
2023-01-26T12:25:59.826Z,15.77
2023-01-26T12:28:33.994Z,13.40
2023-01-26T12:31:09.246Z,15.40
2023-01-26T12:33:39.584Z,13.23
2023-01-26T12:36:19.456Z,13.23
2023-01-26T12:39:01.307Z,13.38
2023-01-26T12:41:37.879Z,12.82
2023-01-26T12:44:21.384Z,17.42
2023-01-26T12:46:56.080Z,13.93
2023-01-26T12:49:31.043Z,15.25
2023-01-26T12:52:05.556Z,14.30
2023-01-26T12:54:39.657Z,18.25
2023-01-26T12:57:13.925Z,13.73
2023-01-26T12:59:48.476Z,15.57
2023-01-26T13:02:38.600Z,14.18
2023-01-26T13:05:26.618Z,13.27
2023-01-26T13:07:55.363Z,13.13
2023-01-26T13:10:30.506Z,13.32
2023-01-26T13:13:02.729Z,17.98
2023-01-26T13:15:33.222Z,14.18
2023-01-26T13:18:03.083Z,21.98
2023-01-26T13:20:53.690Z,17.52
2023-01-26T13:23:52.909Z,14.98
2023-01-26T13:26:52.704Z,16.60
2023-01-26T13:29:36.540Z,20.42
2023-01-26T13:32:38.371Z,17.15
2023-01-26T13:35:13.149Z,14.63
2023-01-26T13:37:50.536Z,16.05
2023-01-26T13:40:22.280Z,17.35
2023-01-26T13:42:56.951Z,15.32
2023-01-26T13:45:33.926Z,18.83
2023-01-26T13:48:06.143Z,16.30
2023-01-26T13:50:38.029Z,15.95
2023-01-26T13:53:38.866Z,15.93
2023-01-26T13:56:30.768Z,16.55
2023-01-26T13:59:11.055Z,20.67
2023-01-26T14:01:44.661Z,14.70
2023-01-26T14:04:20.132Z,15.10
2023-01-26T14:06:53.768Z,16.23
2023-01-26T14:09:22.217Z,16.88
2023-01-26T14:11:59.668Z,15.68
2023-01-26T14:14:30.510Z,17.33
2023-01-26T14:16:59.711Z,15.73
2023-01-26T14:19:29.303Z,15.00
2023-01-26T14:22:00.151Z,14.80
2023-01-26T14:24:34.721Z,17.00
2023-01-26T14:27:05.033Z,17.50
2023-01-26T14:29:39.738Z,15.70
2023-01-26T14:32:16.788Z,16.95
2023-01-26T14:34:53.923Z,16.38
2023-01-26T14:37:22.535Z,17.13
2023-01-26T14:39:51.000Z,20.73
2023-01-26T14:42:21.816Z,19.77
2023-01-26T14:44:50.167Z,17.50
2023-01-26T14:47:22.403Z,20.55
2023-01-26T14:49:55.047Z,16.48
2023-01-26T14:52:26.106Z,18.05
2023-01-26T14:54:55.516Z,17.50
2023-01-26T14:57:27.230Z,15.25
2023-01-26T14:59:59.247Z,15.88
2023-01-26T15:02:37.181Z,17.05
2023-01-26T15:05:12.994Z,15.85
2023-01-26T15:07:44.105Z,15.52
2023-01-26T15:10:37.225Z,17.52
2023-01-26T15:13:19.731Z,16.08
2023-01-26T15:15:49.771Z,16.60
2023-01-26T15:18:20.482Z,16.00
2023-01-26T15:21:00.583Z,15.93
2023-01-26T15:23:31.524Z,17.48
2023-01-26T15:26:08.103Z,14.83
2023-01-26T15:28:38.840Z,15.98
2023-01-26T15:31:08.372Z,18.85
2023-01-26T15:33:51.196Z,17.15
2023-01-26T15:36:29.800Z,14.93
2023-01-26T15:39:01.771Z,15.05
2023-01-26T15:41:30.592Z,15.98
2023-01-26T15:44:00.462Z,15.05
2023-01-26T15:46:28.807Z,16.92
2023-01-26T15:48:57.163Z,14.38
2023-01-26T15:51:25.536Z,16.77
2023-01-26T15:53:53.808Z,18.70
2023-01-26T15:56:22.110Z,15.43
2023-01-26T15:58:50.414Z,14.52
2023-01-26T16:01:22.836Z,21.05
2023-01-26T16:03:51.979Z,116.88
2023-01-26T16:06:25.202Z,178.48
2023-01-26T16:08:53.582Z,177.77
2023-01-26T16:11:22.652Z,154.43
2023-01-26T16:14:02.952Z,151.88
2023-01-26T16:16:33.462Z,115.47
2023-01-26T16:19:01.925Z,93.45
2023-01-26T16:21:34.027Z,91.07
2023-01-26T16:24:03.262Z,57.33
2023-01-26T16:26:34.359Z,73.07
2023-01-26T16:29:02.594Z,121.90
2023-01-26T16:31:34.686Z,268.60
2023-01-26T16:34:03.516Z,188.93
2023-01-26T16:36:31.743Z,166.77
2023-01-26T16:39:00.088Z,123.38
2023-01-26T16:41:30.431Z,96.18
2023-01-26T16:44:00.401Z,68.45
2023-01-26T16:46:30.287Z,70.60
2023-01-26T16:49:00.348Z,77.07
2023-01-26T16:51:31.350Z,131.40
2023-01-26T16:54:00.417Z,138.98
2023-01-26T16:56:29.143Z,117.22
2023-01-26T16:58:57.460Z,103.70
2023-01-26T17:01:28.266Z,105.72
2023-01-26T17:03:57.132Z,68.20
2023-01-26T17:06:26.982Z,45.53
2023-01-26T17:08:55.267Z,32.08
2023-01-26T17:11:27.637Z,29.23
2023-01-26T17:13:57.060Z,23.33
2023-01-26T17:16:29.492Z,20.27
2023-01-26T17:18:58.150Z,20.25
2023-01-26T17:21:27.928Z,21.13
2023-01-26T17:23:58.877Z,18.75
2023-01-26T17:26:27.331Z,18.17
2023-01-26T17:28:56.940Z,20.17
2023-01-26T17:31:25.945Z,17.98
2023-01-26T17:33:55.574Z,20.88
2023-01-26T17:36:24.644Z,18.52
2023-01-26T17:38:54.346Z,21.63
2023-01-26T17:41:22.740Z,20.52
2023-01-26T17:43:51.731Z,18.23
2023-01-26T17:46:21.881Z,19.25
2023-01-26T17:48:50.863Z,17.27
2023-01-26T17:51:20.644Z,17.52
2023-01-26T17:53:50.719Z,17.77
2023-01-26T17:56:21.769Z,16.73
2023-01-26T17:58:51.395Z,16.38
2023-01-26T18:01:20.625Z,16.80
2023-01-26T18:03:49.212Z,18.63
2023-01-26T18:06:17.696Z,17.48
2023-01-26T18:08:46.188Z,17.23
2023-01-26T18:11:16.206Z,18.60
2023-01-26T18:13:46.035Z,17.02
2023-01-26T18:16:17.612Z,20.60
2023-01-26T18:21:17.040Z,20.02
2023-01-26T18:23:47.035Z,18.08
2023-01-26T18:26:16.212Z,16.98
2023-01-26T18:28:46.939Z,18.60
2023-01-26T18:31:17.385Z,20.50
2023-01-26T18:33:46.675Z,16.42
2023-01-26T18:36:17.174Z,16.50
2023-01-26T18:38:50.155Z,15.95
2023-01-26T18:41:19.719Z,19.10
2023-01-26T18:43:51.514Z,15.20
2023-01-26T18:46:20.281Z,16.88
2023-01-26T18:48:49.098Z,17.45
2023-01-26T18:51:19.289Z,17.27
2023-01-26T18:53:47.788Z,16.08
2023-01-26T18:56:18.172Z,14.77
2023-01-26T18:58:46.879Z,16.45
2023-01-26T19:01:18.685Z,17.88
2023-01-26T19:03:47.919Z,16.23
2023-01-26T19:06:18.282Z,17.58
2023-01-26T19:08:47.238Z,21.05
2023-01-26T19:11:15.613Z,19.10
2023-01-26T19:13:48.782Z,17.50
2023-01-26T19:16:19.390Z,16.15
2023-01-26T19:18:47.726Z,15.27
2023-01-26T19:21:17.190Z,15.10
2023-01-26T19:23:45.891Z,17.15
2023-01-26T19:26:15.441Z,26.20
2023-01-26T19:28:43.764Z,123.32
2023-01-26T19:31:13.342Z,158.25
2023-01-26T19:33:43.097Z,152.65
2023-01-26T19:36:11.887Z,148.20
2023-01-26T19:38:40.688Z,151.75
2023-01-26T19:41:09.266Z,191.18
2023-01-26T19:43:37.845Z,102.40
2023-01-26T19:46:08.352Z,139.38
2023-01-26T19:48:36.956Z,231.55
2023-01-26T19:51:09.341Z,222.15
2023-01-26T19:53:40.191Z,268.65
2023-01-26T19:56:19.277Z,185.48
2023-01-26T19:58:51.328Z,118.40
2023-01-26T20:01:20.797Z,98.18
2023-01-26T20:03:54.018Z,65.22
2023-01-26T20:06:26.799Z,45.30
2023-01-26T20:08:55.684Z,30.90
2023-01-26T20:11:27.275Z,27.15
2023-01-26T20:13:56.837Z,22.55
2023-01-26T20:16:28.007Z,19.20
2023-01-26T20:18:56.764Z,13.88
2023-01-26T20:21:26.846Z,17.83
2023-01-26T20:23:56.211Z,16.05
2023-01-26T20:26:25.943Z,14.65
2023-01-26T20:28:57.958Z,14.23
2023-01-26T20:31:27.714Z,16.80
2023-01-26T20:33:56.522Z,14.70
2023-01-26T20:36:28.643Z,15.85
2023-01-26T20:38:57.291Z,12.65
2023-01-26T20:41:27.584Z,13.90
2023-01-26T20:44:00.493Z,12.95
2023-01-26T20:46:31.424Z,12.57
2023-01-26T20:49:01.224Z,13.70
2023-01-26T20:51:34.062Z,12.60
2023-01-26T20:54:02.952Z,13.40
2023-01-26T20:56:31.832Z,15.40
2023-01-26T20:59:00.483Z,13.95
2023-01-26T21:01:28.792Z,11.20
2023-01-26T21:03:57.126Z,13.68
2023-01-26T21:06:26.289Z,13.82
2023-01-26T21:08:58.513Z,12.52
2023-01-26T21:11:30.390Z,12.10
2023-01-26T21:14:00.588Z,13.27
2023-01-26T21:16:30.128Z,10.77
2023-01-26T21:18:58.793Z,10.45
2023-01-26T21:21:27.300Z,11.10
2023-01-26T21:23:57.017Z,12.35
2023-01-26T21:26:27.721Z,12.70
2023-01-26T21:28:58.114Z,9.80
2023-01-26T21:31:28.532Z,10.25
2023-01-26T21:33:57.555Z,10.80
2023-01-26T21:36:28.084Z,12.93
2023-01-26T21:38:59.435Z,10.60
2023-01-26T21:41:47.234Z,11.40
2023-01-26T21:44:17.493Z,11.48
2023-01-26T21:46:46.501Z,10.63
2023-01-26T21:49:15.441Z,10.25
2023-01-26T21:52:02.146Z,10.32
2023-01-26T21:54:32.496Z,11.93
2023-01-26T21:57:01.596Z,11.07
2023-01-26T21:59:29.596Z,11.35
2023-01-26T22:01:59.028Z,12.05
2023-01-26T22:04:29.181Z,11.57
2023-01-26T22:06:58.241Z,13.30
2023-01-26T22:09:26.607Z,13.23
2023-01-26T22:11:56.223Z,10.80
2023-01-26T22:14:26.168Z,11.05
2023-01-26T22:16:54.782Z,13.20
2023-01-26T22:19:23.153Z,12.68
2023-01-26T22:21:51.766Z,11.38
2023-01-26T22:24:20.686Z,13.07
2023-01-26T22:26:49.256Z,13.25
2023-01-26T22:29:19.061Z,13.10
2023-01-26T22:31:47.390Z,12.15
2023-01-26T22:34:15.682Z,14.48
2023-01-26T22:36:44.069Z,10.77
2023-01-26T22:39:13.235Z,12.73
2023-01-26T22:41:41.768Z,13.27
2023-01-26T22:44:10.698Z,13.30
2023-01-26T22:46:40.333Z,14.60
2023-01-26T22:49:08.554Z,11.07
2023-01-26T22:51:38.034Z,12.07
2023-01-26T22:54:06.671Z,11.88
2023-01-26T22:56:35.100Z,12.80
2023-01-26T22:59:03.412Z,14.13
2023-01-26T23:01:34.016Z,15.30
2023-01-26T23:04:04.028Z,17.27
2023-01-26T23:06:32.343Z,55.85
2023-01-26T23:09:01.258Z,116.28
2023-01-26T23:11:30.809Z,135.45
2023-01-26T23:14:00.295Z,155.60
2023-01-26T23:16:29.464Z,143.82
2023-01-26T23:18:59.403Z,111.00
2023-01-26T23:21:29.851Z,73.88
2023-01-26T23:23:58.409Z,55.10
2023-01-26T23:26:26.870Z,46.22
2023-01-26T23:28:55.168Z,150.82
2023-01-26T23:31:23.519Z,215.32
2023-01-26T23:33:51.894Z,164.18
2023-01-26T23:36:20.651Z,155.98
2023-01-26T23:38:50.730Z,158.95
2023-01-26T23:41:19.400Z,98.30
2023-01-26T23:43:47.662Z,70.07
2023-01-26T23:46:15.913Z,48.80
2023-01-26T23:48:44.163Z,32.05
2023-01-26T23:51:13.367Z,26.67
2023-01-26T23:53:41.962Z,21.25
2023-01-26T23:56:14.997Z,17.40
2023-01-26T23:58:43.357Z,17.00
